Time;durP1;ratioP1;P1;durP2;ratioP2;P2;SDS_P1;SDS_P2;PMS_P1;PMS_P2;Temp;Humidity;BMP_temperature;BMP_pressure;BME280_temperature;BME280_humidity;BME280_pressure;Samples;Min_cycle;Max_cycle;Signal;HPM_P1;HPM_P2
2020/12/27 00:00:48;;;;;;;;;3.00;1.00;;;;;;;;5060825;28;8852;-69
2020/12/27 00:03:14;;;;;;;;;2.33;1.67;;;;;;;;5059998;28;12218;-69
2020/12/27 00:05:40;;;;;;;;;3.00;1.33;;;;;;;;5057526;28;8857;-70
2020/12/27 00:08:06;;;;;;;;;1.33;1.33;;;;;;;;5059144;28;9121;-69
2020/12/27 00:10:32;;;;;;;;;2.00;1.00;;;;;;;;5062082;28;8844;-69
2020/12/27 00:12:59;;;;;;;;;3.00;2.00;;;;;;;;5059405;28;8843;-69
2020/12/27 00:15:26;;;;;;;;;2.00;1.67;;;;;;;;5061786;28;8852;-69
2020/12/27 00:17:52;;;;;;;;;5.67;3.00;;;;;;;;5059752;28;8832;-69
2020/12/27 00:20:18;;;;;;;;;2.33;2.00;;;;;;;;5060678;28;8830;-69
2020/12/27 00:22:44;;;;;;;;;2.00;1.00;;;;;;;;5060712;28;9566;-69
2020/12/27 00:25:10;;;;;;;;;2.00;2.00;;;;;;;;5059455;28;8860;-68
2020/12/27 00:27:36;;;;;;;;;2.00;2.00;;;;;;;;5061846;28;8909;-68
2020/12/27 00:30:02;;;;;;;;;4.33;2.00;;;;;;;;5058544;28;8826;-68
2020/12/27 00:32:29;;;;;;;;;1.00;1.00;;;;;;;;5061925;28;8824;-69
2020/12/27 00:34:55;;;;;;;;;2.00;2.00;;;;;;;;5059161;28;8835;-69
2020/12/27 00:37:21;;;;;;;;;2.00;1.00;;;;;;;;5060838;28;8823;-68
2020/12/27 00:39:47;;;;;;;;;5.00;3.00;;;;;;;;5059852;28;8877;-68
2020/12/27 00:42:13;;;;;;;;;2.00;2.00;;;;;;;;5059833;28;8842;-68
2020/12/27 00:44:39;;;;;;;;;2.00;2.00;;;;;;;;5060460;28;8840;-69
2020/12/27 00:47:05;;;;;;;;;3.00;3.00;;;;;;;;5058661;28;8909;-69
2020/12/27 00:49:32;;;;;;;;;2.00;2.00;;;;;;;;5061576;28;8821;-69
2020/12/27 00:51:58;;;;;;;;;2.67;2.00;;;;;;;;5058686;28;8847;-69
2020/12/27 00:54:24;;;;;;;;;1.00;0.33;;;;;;;;5058442;28;8943;-68
2020/12/27 00:56:50;;;;;;;;;3.00;2.67;;;;;;;;5058068;28;8835;-68
2020/12/27 00:59:16;;;;;;;;;2.00;2.00;;;;;;;;5060191;28;8846;-69
2020/12/27 01:01:42;;;;;;;;;2.33;2.33;;;;;;;;5060323;28;9615;-70
2020/12/27 01:04:08;;;;;;;;;2.00;2.00;;;;;;;;5058186;28;8875;-68
2020/12/27 01:06:37;;;;;;;;;6.00;2.33;;;;;;;;5057834;28;8836;-68
2020/12/27 01:09:03;;;;;;;;;3.33;2.00;;;;;;;;5058088;28;8811;-68
2020/12/27 01:11:29;;;;;;;;;2.00;2.00;;;;;;;;5053760;28;8803;-68
2020/12/27 01:13:55;;;;;;;;;5.00;1.33;;;;;;;;5057975;28;9543;-68
2020/12/27 01:16:21;;;;;;;;;5.00;3.00;;;;;;;;5058229;28;8828;-69
2020/12/27 01:18:47;;;;;;;;;1.00;1.00;;;;;;;;5059804;28;8866;-68
2020/12/27 01:21:21;;;;;;;;;2.00;2.00;;;;;;;;5060083;28;8859;-68
2020/12/27 01:23:48;;;;;;;;;1.33;1.33;;;;;;;;5059825;28;8866;-69
2020/12/27 01:26:14;;;;;;;;;3.00;2.00;;;;;;;;5060220;28;8937;-69
2020/12/27 01:28:39;;;;;;;;;3.00;3.00;;;;;;;;5058819;28;9540;-68
2020/12/27 01:31:05;;;;;;;;;3.00;3.00;;;;;;;;5061224;28;8829;-68
2020/12/27 01:33:31;;;;;;;;;2.00;2.00;;;;;;;;5057972;28;8876;-68
2020/12/27 01:35:57;;;;;;;;;5.00;3.00;;;;;;;;5061157;28;8833;-68
2020/12/27 01:38:23;;;;;;;;;2.00;2.00;;;;;;;;5058823;28;8862;-69
2020/12/27 01:40:50;;;;;;;;;2.33;2.00;;;;;;;;5060057;28;8858;-68
2020/12/27 01:43:16;;;;;;;;;2.00;2.00;;;;;;;;5059520;28;8868;-68
2020/12/27 01:45:42;;;;;;;;;3.00;2.00;;;;;;;;5059157;28;8831;-68
2020/12/27 01:48:11;;;;;;;;;2.00;2.00;;;;;;;;5060585;28;8962;-68
2020/12/27 01:50:37;;;;;;;;;3.33;2.00;;;;;;;;5058346;28;8839;-68
2020/12/27 01:53:04;;;;;;;;;2.00;2.00;;;;;;;;5061281;28;9579;-68
2020/12/27 01:55:31;;;;;;;;;3.00;2.00;;;;;;;;5057658;28;8854;-68
2020/12/27 01:58:09;;;;;;;;;5.00;3.00;;;;;;;;5064582;28;8917;-69
2020/12/27 02:00:35;;;;;;;;;5.00;2.00;;;;;;;;5062579;28;8820;-69
2020/12/27 02:03:01;;;;;;;;;3.00;1.00;;;;;;;;5061567;28;8873;-68
2020/12/27 02:05:27;;;;;;;;;2.00;1.00;;;;;;;;5064797;28;8946;-69
2020/12/27 02:07:53;;;;;;;;;1.33;1.33;;;;;;;;5061937;28;8847;-69
2020/12/27 02:10:20;;;;;;;;;2.00;2.00;;;;;;;;5063530;28;8835;-69
2020/12/27 02:12:45;;;;;;;;;2.00;2.00;;;;;;;;5062745;28;8848;-69
2020/12/27 02:15:12;;;;;;;;;2.00;2.00;;;;;;;;5062457;28;9640;-67
2020/12/27 02:17:38;;;;;;;;;2.00;2.00;;;;;;;;5063595;28;8833;-69
2020/12/27 02:20:05;;;;;;;;;1.67;1.67;;;;;;;;5061547;28;8852;-68
2020/12/27 02:22:31;;;;;;;;;3.00;2.00;;;;;;;;5064641;28;8836;-69
2020/12/27 02:24:57;;;;;;;;;2.00;2.00;;;;;;;;5061015;28;8827;-69
2020/12/27 02:27:23;;;;;;;;;5.33;3.33;;;;;;;;5064222;28;8836;-69
2020/12/27 02:29:49;;;;;;;;;2.00;2.00;;;;;;;;5061660;28;8852;-69
2020/12/27 02:32:15;;;;;;;;;2.00;1.67;;;;;;;;5062913;28;8846;-69
2020/12/27 02:34:41;;;;;;;;;3.00;2.00;;;;;;;;5062813;28;8908;-69
2020/12/27 02:37:07;;;;;;;;;2.00;2.00;;;;;;;;5061624;28;9593;-69
2020/12/27 02:39:33;;;;;;;;;2.00;2.00;;;;;;;;5063793;28;9572;-68
2020/12/27 02:42:00;;;;;;;;;1.00;1.00;;;;;;;;5060940;28;8835;-68
2020/12/27 02:44:26;;;;;;;;;3.33;2.00;;;;;;;;5063670;28;8923;-68
2020/12/27 02:46:52;;;;;;;;;2.00;2.00;;;;;;;;5061660;28;8874;-68
2020/12/27 02:49:18;;;;;;;;;2.00;1.00;;;;;;;;5062798;28;8866;-68
2020/12/27 02:51:44;;;;;;;;;3.33;3.33;;;;;;;;5062177;28;8824;-68
2020/12/27 02:54:10;;;;;;;;;2.00;2.00;;;;;;;;5061983;28;9001;-67
2020/12/27 02:56:36;;;;;;;;;3.00;2.00;;;;;;;;5063238;28;8852;-68
2020/12/27 02:59:03;;;;;;;;;2.00;2.00;;;;;;;;5060782;28;8842;-68
2020/12/27 03:01:29;;;;;;;;;1.33;1.00;;;;;;;;5063774;28;8855;-68
2020/12/27 03:03:55;;;;;;;;;2.33;1.00;;;;;;;;5060744;28;9566;-68
2020/12/27 03:06:21;;;;;;;;;1.00;1.00;;;;;;;;5063001;28;8854;-67
2020/12/27 03:08:54;;;;;;;;;5.00;2.00;;;;;;;;5061520;28;8931;-68
2020/12/27 03:11:20;;;;;;;;;2.00;2.00;;;;;;;;5062434;28;9543;-68
2020/12/27 03:13:46;;;;;;;;;4.00;2.67;;;;;;;;5061450;28;8848;-67
2020/12/27 03:16:13;;;;;;;;;1.33;1.00;;;;;;;;5061635;28;8834;-67
2020/12/27 03:18:39;;;;;;;;;5.67;1.33;;;;;;;;5062237;28;8821;-68
2020/12/27 03:21:04;;;;;;;;;6.00;5.00;;;;;;;;5060086;28;8975;-68
2020/12/27 03:23:30;;;;;;;;;2.00;2.00;;;;;;;;5064035;28;8862;-68
2020/12/27 03:25:56;;;;;;;;;1.00;1.00;;;;;;;;5055859;28;8838;-68
2020/12/27 03:28:22;;;;;;;;;0.00;0.00;;;;;;;;5059865;28;8897;-68
2020/12/27 03:30:48;;;;;;;;;3.33;3.33;;;;;;;;5059377;28;8862;-68
2020/12/27 03:33:15;;;;;;;;;7.33;1.33;;;;;;;;5059701;28;9071;-67
2020/12/27 03:35:41;;;;;;;;;2.00;1.33;;;;;;;;5059759;28;8844;-69
2020/12/27 03:38:07;;;;;;;;;2.67;2.00;;;;;;;;5060246;28;8843;-69
2020/12/27 03:40:33;;;;;;;;;2.00;2.00;;;;;;;;5058497;28;8823;-68
2020/12/27 03:42:59;;;;;;;;;2.00;2.00;;;;;;;;5059563;28;8869;-68
2020/12/27 03:45:25;;;;;;;;;1.00;1.00;;;;;;;;5059297;28;8841;-69
2020/12/27 03:47:54;;;;;;;;;1.00;1.00;;;;;;;;5059244;28;8841;-68
2020/12/27 03:50:21;;;;;;;;;1.00;1.00;;;;;;;;5061737;28;8830;-69
2020/12/27 03:52:47;;;;;;;;;2.67;2.00;;;;;;;;5060551;28;8969;-69
2020/12/27 03:55:13;;;;;;;;;6.00;1.00;;;;;;;;5060922;28;8838;-68
2020/12/27 03:57:38;;;;;;;;;4.00;2.00;;;;;;;;5061013;28;8840;-68
2020/12/27 04:00:05;;;;;;;;;2.00;2.00;;;;;;;;5059635;28;8840;-68
2020/12/27 04:02:30;;;;;;;;;5.00;2.00;;;;;;;;5062588;28;8832;-68
2020/12/27 04:04:56;;;;;;;;;1.67;1.67;;;;;;;;5059305;28;8864;-68
2020/12/27 04:07:23;;;;;;;;;2.00;2.00;;;;;;;;5062283;28;8856;-69
2020/12/27 04:09:50;;;;;;;;;1.00;1.00;;;;;;;;5059860;28;8843;-68
2020/12/27 04:12:15;;;;;;;;;1.67;1.67;;;;;;;;5061169;28;8827;-68
2020/12/27 04:14:41;;;;;;;;;0.67;0.67;;;;;;;;5060903;28;8839;-69
2020/12/27 04:17:08;;;;;;;;;2.67;2.67;;;;;;;;5059832;28;8846;-69
2020/12/27 04:19:34;;;;;;;;;4.33;1.00;;;;;;;;5061596;28;8840;-68
2020/12/27 04:21:59;;;;;;;;;1.00;1.00;;;;;;;;5059298;28;9841;-68
2020/12/27 04:24:28;;;;;;;;;12.00;3.67;;;;;;;;5062109;28;8855;-68
2020/12/27 04:26:54;;;;;;;;;2.00;2.00;;;;;;;;5059447;28;8830;-68
2020/12/27 04:29:20;;;;;;;;;1.67;1.67;;;;;;;;5061399;28;8947;-68
2020/12/27 04:31:49;;;;;;;;;1.00;1.00;;;;;;;;5060231;28;8820;-68
2020/12/27 04:34:15;;;;;;;;;2.00;1.00;;;;;;;;5060751;28;8843;-68
2020/12/27 04:36:41;;;;;;;;;4.67;1.00;;;;;;;;5060508;28;8868;-68
2020/12/27 04:39:07;;;;;;;;;2.00;2.00;;;;;;;;5059688;28;8861;-68
2020/12/27 04:41:35;;;;;;;;;2.00;2.00;;;;;;;;5061465;28;8832;-69
2020/12/27 04:44:01;;;;;;;;;1.00;1.00;;;;;;;;5058689;28;8823;-67
2020/12/27 04:46:27;;;;;;;;;4.00;1.00;;;;;;;;5054484;28;8849;-68
2020/12/27 04:48:56;;;;;;;;;1.33;1.33;;;;;;;;5058584;28;8838;-68
2020/12/27 04:51:23;;;;;;;;;2.00;2.00;;;;;;;;5061146;28;8863;-68
2020/12/27 04:53:49;;;;;;;;;4.00;1.00;;;;;;;;5059556;28;9580;-69
2020/12/27 04:56:17;;;;;;;;;1.00;1.00;;;;;;;;5060380;28;8849;-70
2020/12/27 04:58:44;;;;;;;;;2.67;2.00;;;;;;;;5059907;28;8982;-69
2020/12/27 05:01:10;;;;;;;;;5.00;2.00;;;;;;;;5059654;28;8845;-68
2020/12/27 05:03:36;;;;;;;;;4.00;1.33;;;;;;;;5060868;28;8836;-69
2020/12/27 05:06:02;;;;;;;;;5.00;1.67;;;;;;;;5058450;28;8839;-69
2020/12/27 05:08:28;;;;;;;;;2.00;2.00;;;;;;;;5061772;28;8835;-69
2020/12/27 05:10:54;;;;;;;;;2.00;2.00;;;;;;;;5058197;28;9527;-69
2020/12/27 05:13:20;;;;;;;;;4.00;3.33;;;;;;;;5060865;28;8846;-69
2020/12/27 05:15:47;;;;;;;;;1.67;1.67;;;;;;;;5059451;28;8836;-68
2020/12/27 05:18:13;;;;;;;;;2.00;1.00;;;;;;;;5059735;28;8863;-68
2020/12/27 05:20:41;;;;;;;;;1.00;1.00;;;;;;;;5060337;28;9653;-68
2020/12/27 05:23:07;;;;;;;;;2.00;1.67;;;;;;;;5058790;28;8831;-69
2020/12/27 05:25:34;;;;;;;;;5.00;1.67;;;;;;;;5061042;28;8851;-69
2020/12/27 05:28:00;;;;;;;;;2.00;2.00;;;;;;;;5058233;28;8850;-67
2020/12/27 05:30:27;;;;;;;;;1.00;1.00;;;;;;;;5054091;28;8863;-67
2020/12/27 05:32:53;;;;;;;;;5.00;1.00;;;;;;;;5064480;28;8832;-68
2020/12/27 05:35:20;;;;;;;;;4.67;2.00;;;;;;;;5062791;28;8828;-68
2020/12/27 05:37:46;;;;;;;;;3.33;2.00;;;;;;;;5064124;28;8869;-68
2020/12/27 05:40:13;;;;;;;;;5.00;1.00;;;;;;;;5063835;28;8848;-68
2020/12/27 05:42:39;;;;;;;;;4.00;2.00;;;;;;;;5063047;28;8839;-69
2020/12/27 05:45:11;;;;;;;;;4.00;2.00;;;;;;;;5064565;28;8825;-68
2020/12/27 05:47:39;;;;;;;;;4.00;4.00;;;;;;;;5062619;28;8881;-68
2020/12/27 05:50:06;;;;;;;;;4.00;2.00;;;;;;;;5064622;28;8913;-68
2020/12/27 05:52:34;;;;;;;;;1.33;1.33;;;;;;;;5061767;28;8845;-68
2020/12/27 05:55:02;;;;;;;;;4.00;4.00;;;;;;;;5065362;28;8825;-67
2020/12/27 05:57:28;;;;;;;;;1.33;1.33;;;;;;;;5061437;28;9622;-68
2020/12/27 05:59:55;;;;;;;;;2.00;2.00;;;;;;;;5064972;28;8850;-68
2020/12/27 06:02:36;;;;;;;;;4.00;1.33;;;;;;;;5062220;28;8901;-68
2020/12/27 06:05:09;;;;;;;;;2.00;2.00;;;;;;;;5061446;28;8920;-69
2020/12/27 06:07:37;;;;;;;;;4.67;2.67;;;;;;;;5063951;28;8836;-68
2020/12/27 09:04:16;;;;;;;;;3.00;3.00;;;;;;;;5101091;27;942846;-68
2020/12/27 09:06:42;;;;;;;;;1.00;1.00;;;;;;;;5115826;27;8832;-69
2020/12/27 09:09:09;;;;;;;;;1.00;1.00;;;;;;;;5118960;27;8836;-74
2020/12/27 09:11:44;;;;;;;;;4.00;1.00;;;;;;;;5116330;27;8860;-71
2020/12/27 09:14:25;;;;;;;;;1.00;1.00;;;;;;;;5118324;27;8835;-68
2020/12/27 09:16:51;;;;;;;;;1.33;0.00;;;;;;;;5119135;27;9554;-67
2020/12/27 09:19:18;;;;;;;;;1.00;1.00;;;;;;;;5119779;27;8892;-68
2020/12/27 09:21:45;;;;;;;;;1.00;1.00;;;;;;;;5119099;27;9555;-69
2020/12/27 09:24:11;;;;;;;;;2.00;0.67;;;;;;;;5115562;27;8834;-71
2020/12/27 09:26:37;;;;;;;;;0.00;0.00;;;;;;;;5115697;27;8871;-69
2020/12/27 09:29:03;;;;;;;;;2.00;0.00;;;;;;;;5114806;27;9559;-69
2020/12/27 09:31:29;;;;;;;;;1.67;0.33;;;;;;;;5118907;27;8836;-75
2020/12/27 09:33:55;;;;;;;;;2.00;1.00;;;;;;;;5116092;28;9617;-68
2020/12/27 09:36:24;;;;;;;;;1.00;1.00;;;;;;;;5119112;28;8845;-67
2020/12/27 09:38:50;;;;;;;;;0.00;0.00;;;;;;;;5119767;28;8829;-68
2020/12/27 09:41:16;;;;;;;;;2.00;0.00;;;;;;;;5117503;27;8834;-68
2020/12/27 09:43:46;;;;;;;;;1.00;1.00;;;;;;;;5113752;27;8824;-68
2020/12/27 09:46:12;;;;;;;;;2.33;1.00;;;;;;;;5115941;27;8842;-69
2020/12/27 09:48:38;;;;;;;;;1.00;1.00;;;;;;;;5115491;27;9681;-69
2020/12/27 09:51:16;;;;;;;;;1.00;1.00;;;;;;;;5115111;27;8842;-68
2020/12/27 09:53:43;;;;;;;;;1.00;1.00;;;;;;;;5115266;27;9611;-68
2020/12/27 09:56:09;;;;;;;;;1.00;1.00;;;;;;;;5115548;27;8870;-68
2020/12/27 09:58:35;;;;;;;;;2.00;0.00;;;;;;;;5116321;27;8844;-68
2020/12/27 10:01:01;;;;;;;;;3.67;1.00;;;;;;;;5115902;27;8868;-68
2020/12/27 10:03:27;;;;;;;;;1.00;1.00;;;;;;;;5117874;27;8852;-68
2020/12/27 10:05:53;;;;;;;;;2.00;1.00;;;;;;;;5115012;28;8859;-69
2020/12/27 10:08:19;;;;;;;;;4.00;2.00;;;;;;;;5117767;27;8844;-69
2020/12/27 10:10:46;;;;;;;;;2.00;1.00;;;;;;;;5115485;27;8832;-69
2020/12/27 10:13:12;;;;;;;;;1.67;1.67;;;;;;;;5116210;27;8930;-69
2020/12/27 10:15:38;;;;;;;;;1.67;1.00;;;;;;;;5102436;28;8840;-70
2020/12/27 10:18:04;;;;;;;;;1.00;1.00;;;;;;;;5101862;28;8876;-70
2020/12/27 10:20:30;;;;;;;;;4.00;1.00;;;;;;;;5103643;28;8836;-68
2020/12/27 10:22:55;;;;;;;;;1.00;1.00;;;;;;;;5101015;28;8835;-68
2020/12/27 10:25:21;;;;;;;;;2.00;1.00;;;;;;;;5103880;28;8851;-68
2020/12/27 10:27:48;;;;;;;;;1.33;1.00;;;;;;;;5101474;28;8849;-68
2020/12/27 10:30:14;;;;;;;;;1.00;1.00;;;;;;;;5103138;28;8923;-68
2020/12/27 10:32:40;;;;;;;;;1.67;0.00;;;;;;;;5101885;28;8829;-67
2020/12/27 10:35:08;;;;;;;;;0.33;0.33;;;;;;;;5101917;28;8830;-68
2020/12/27 10:37:34;;;;;;;;;2.00;1.00;;;;;;;;5102615;28;8866;-68
2020/12/27 10:40:00;;;;;;;;;2.00;1.00;;;;;;;;5100911;28;8838;-69
2020/12/27 10:42:26;;;;;;;;;1.33;1.00;;;;;;;;5103963;28;8836;-68
2020/12/27 10:44:52;;;;;;;;;0.33;0.33;;;;;;;;5100536;28;8849;-68
2020/12/27 10:47:18;;;;;;;;;1.00;1.00;;;;;;;;5103219;28;8912;-69
2020/12/27 10:49:44;;;;;;;;;1.00;1.00;;;;;;;;5100999;28;11438;-69
2020/12/27 10:52:10;;;;;;;;;0.33;0.33;;;;;;;;5101974;28;8869;-68
2020/12/27 10:54:36;;;;;;;;;0.67;0.67;;;;;;;;5102106;28;8832;-68
2020/12/27 10:57:02;;;;;;;;;1.00;0.00;;;;;;;;5100878;28;8838;-69
2020/12/27 10:59:28;;;;;;;;;0.00;0.00;;;;;;;;5103049;28;8844;-68
2020/12/27 11:01:55;;;;;;;;;3.00;1.00;;;;;;;;5099873;28;8874;-68
2020/12/27 11:04:21;;;;;;;;;2.00;1.00;;;;;;;;5099286;28;8832;-69
2020/12/27 11:06:47;;;;;;;;;1.00;1.00;;;;;;;;5100412;28;8942;-72
2020/12/27 11:09:13;;;;;;;;;2.00;2.00;;;;;;;;5102414;28;8841;-75
2020/12/27 11:11:39;;;;;;;;;2.50;2.50;;;;;;;;5101124;28;8848;-73
2020/12/27 11:14:05;;;;;;;;;2.00;0.75;;;;;;;;5101113;28;8822;-72
2020/12/27 11:16:31;;;;;;;;;1.75;1.50;;;;;;;;5102153;28;11514;-70
2020/12/27 11:18:58;;;;;;;;;2.75;1.00;;;;;;;;5100118;28;11575;-71
2020/12/27 11:21:24;;;;;;;;;2.00;2.00;;;;;;;;5103390;28;11480;-71
2020/12/27 11:23:50;;;;;;;;;1.00;1.00;;;;;;;;5099479;28;11455;-73
2020/12/27 11:26:20;;;;;;;;;2.00;1.00;;;;;;;;5101997;28;9679;-70
2020/12/27 11:28:46;;;;;;;;;1.00;1.00;;;;;;;;5098842;28;8855;-70
2020/12/27 11:31:14;;;;;;;;;5.00;2.00;;;;;;;;5100659;28;11484;-70
2020/12/27 11:33:40;;;;;;;;;3.00;2.00;;;;;;;;5098837;28;11460;-68
2020/12/27 11:36:07;;;;;;;;;2.50;1.50;;;;;;;;5099459;28;11578;-69
2020/12/27 11:38:33;;;;;;;;;0.00;0.00;;;;;;;;5100293;28;8932;-68
2020/12/27 11:40:58;;;;;;;;;3.00;2.00;;;;;;;;5098503;28;11371;-68
2020/12/27 11:43:25;;;;;;;;;0.50;0.50;;;;;;;;5100956;28;8828;-68
2020/12/27 11:45:50;;;;;;;;;0.00;0.00;;;;;;;;5098156;28;8842;-69
2020/12/27 11:48:16;;;;;;;;;1.00;1.00;;;;;;;;5100318;28;11383;-69
2020/12/27 11:50:43;;;;;;;;;1.75;1.50;;;;;;;;5099501;28;11412;-68
2020/12/27 11:53:09;;;;;;;;;1.00;1.00;;;;;;;;5099397;28;8852;-68
2020/12/27 11:55:37;;;;;;;;;2.00;2.00;;;;;;;;5094973;28;11394;-68
2020/12/27 11:58:03;;;;;;;;;1.75;1.00;;;;;;;;5101158;28;11416;-68
2020/12/27 12:00:31;;;;;;;;;1.00;1.00;;;;;;;;5097639;28;11520;-73
2020/12/27 12:02:57;;;;;;;;;4.00;1.00;;;;;;;;5101195;28;8832;-69
2020/12/27 12:05:23;;;;;;;;;0.25;0.25;;;;;;;;5096687;28;11655;-70
2020/12/27 12:07:49;;;;;;;;;2.00;1.25;;;;;;;;5098167;28;8842;-71
2020/12/27 12:10:16;;;;;;;;;1.00;0.75;;;;;;;;5099689;28;11475;-69
2020/12/27 12:12:43;;;;;;;;;0.25;0.25;;;;;;;;5096457;28;11478;-69
2020/12/27 12:15:09;;;;;;;;;0.00;0.00;;;;;;;;5098251;28;11476;-70
2020/12/27 12:17:35;;;;;;;;;0.50;0.50;;;;;;;;5099712;28;11444;-71
2020/12/27 12:20:01;;;;;;;;;1.00;1.00;;;;;;;;5099973;28;8924;-69
2020/12/27 12:22:27;;;;;;;;;1.00;1.00;;;;;;;;5097410;28;8840;-71
2020/12/27 12:24:53;;;;;;;;;2.00;0.00;;;;;;;;5100941;28;8852;-73
2020/12/27 12:27:19;;;;;;;;;0.00;0.00;;;;;;;;5097124;28;8934;-69
2020/12/27 12:29:45;;;;;;;;;0.00;0.00;;;;;;;;5099685;28;8846;-72
2020/12/27 12:32:11;;;;;;;;;0.00;0.00;;;;;;;;5084949;28;11448;-70
2020/12/27 12:34:37;;;;;;;;;1.00;1.00;;;;;;;;5058124;28;8878;-68
2020/12/27 12:37:03;;;;;;;;;1.00;1.00;;;;;;;;5059139;28;8901;-68
2020/12/27 12:39:29;;;;;;;;;2.00;2.00;;;;;;;;5056471;28;9576;-69
2020/12/27 12:41:56;;;;;;;;;1.00;1.00;;;;;;;;5055553;28;8929;-69
2020/12/27 12:44:23;;;;;;;;;2.25;1.00;;;;;;;;5058619;28;8825;-70
2020/12/27 12:46:49;;;;;;;;;1.00;1.00;;;;;;;;5057004;28;11546;-70
2020/12/27 12:49:15;;;;;;;;;1.00;1.00;;;;;;;;5056998;28;11575;-72
2020/12/27 12:51:41;;;;;;;;;1.00;1.00;;;;;;;;5051983;28;8857;-72
2020/12/27 12:54:07;;;;;;;;;3.00;2.00;;;;;;;;5057390;28;11966;-73
2020/12/27 12:56:33;;;;;;;;;1.00;1.00;;;;;;;;5055079;28;8858;-73
2020/12/27 12:58:59;;;;;;;;;2.50;2.00;;;;;;;;5055332;28;8827;-73
2020/12/27 13:01:25;;;;;;;;;0.50;0.00;;;;;;;;5051172;28;11477;-73
2020/12/27 13:03:51;;;;;;;;;2.00;1.75;;;;;;;;5049548;28;8833;-73
2020/12/27 13:06:18;;;;;;;;;1.00;1.00;;;;;;;;5049993;28;14149;-74
2020/12/27 13:08:44;;;;;;;;;1.00;1.00;;;;;;;;5054086;28;8838;-73
2020/12/27 13:11:12;;;;;;;;;3.00;1.50;;;;;;;;5052271;28;11494;-73
2020/12/27 13:13:38;;;;;;;;;1.00;1.00;;;;;;;;5052415;28;11470;-72
2020/12/27 13:16:04;;;;;;;;;1.00;1.00;;;;;;;;5060381;28;11541;-72
2020/12/27 13:18:31;;;;;;;;;1.75;1.00;;;;;;;;5046988;28;8872;-71
2020/12/27 13:20:57;;;;;;;;;3.00;1.25;;;;;;;;5059823;28;8929;-72
2020/12/27 13:23:28;;;;;;;;;1.00;1.00;;;;;;;;5055994;28;11526;-71
2020/12/27 13:25:54;;;;;;;;;2.00;2.00;;;;;;;;5052938;28;8872;-73
2020/12/27 13:28:19;;;;;;;;;2.00;2.00;;;;;;;;5060537;28;11456;-74
2020/12/27 13:30:45;;;;;;;;;3.00;1.50;;;;;;;;5058263;28;9607;-73
2020/12/27 13:33:13;;;;;;;;;1.50;1.50;;;;;;;;5056782;28;8860;-72
2020/12/27 13:35:40;;;;;;;;;3.50;2.75;;;;;;;;5057467;28;8858;-71
2020/12/27 13:38:06;;;;;;;;;3.00;3.00;;;;;;;;5053871;28;11494;-71
2020/12/27 13:40:32;;;;;;;;;2.00;2.00;;;;;;;;5051055;28;11489;-69
2020/12/27 13:42:58;;;;;;;;;5.50;2.75;;;;;;;;5058978;28;8832;-70
2020/12/27 13:45:24;;;;;;;;;3.00;3.00;;;;;;;;5057147;28;9557;-70
2020/12/27 13:47:50;;;;;;;;;3.00;1.00;;;;;;;;5055401;28;8924;-71
2020/12/27 13:50:16;;;;;;;;;2.00;2.00;;;;;;;;5057929;28;8883;-72
2020/12/27 13:52:43;;;;;;;;;2.25;2.25;;;;;;;;5059076;28;8842;-75
2020/12/27 13:55:09;;;;;;;;;1.50;1.50;;;;;;;;5061306;28;8840;-73
2020/12/27 13:57:35;;;;;;;;;1.50;1.50;;;;;;;;5062051;28;11696;-75
2020/12/27 14:00:01;;;;;;;;;1.75;1.75;;;;;;;;5059280;28;8854;-73
2020/12/27 14:02:27;;;;;;;;;1.50;1.50;;;;;;;;5059904;28;8851;-74
2020/12/27 14:04:52;;;;;;;;;1.00;1.00;;;;;;;;5057769;28;11471;-74
2020/12/27 14:07:18;;;;;;;;;0.75;0.75;;;;;;;;5059073;28;8813;-74
2020/12/27 14:09:45;;;;;;;;;2.00;1.00;;;;;;;;5061459;28;8913;-73
2020/12/27 14:12:11;;;;;;;;;1.00;1.00;;;;;;;;5063029;28;8960;-74
2020/12/27 14:14:37;;;;;;;;;0.25;0.25;;;;;;;;5062433;28;11472;-73
2020/12/27 14:17:03;;;;;;;;;1.25;0.75;;;;;;;;5061756;28;8874;-73
2020/12/27 14:19:29;;;;;;;;;2.25;1.75;;;;;;;;5057558;28;8835;-72
2020/12/27 14:21:55;;;;;;;;;2.00;2.00;;;;;;;;5063425;28;9053;-74
2020/12/27 14:24:21;;;;;;;;;2.25;2.25;;;;;;;;5060612;28;8858;-73
2020/12/27 14:26:48;;;;;;;;;2.75;2.00;;;;;;;;5063677;28;8845;-72
2020/12/27 14:29:14;;;;;;;;;4.50;2.75;;;;;;;;5061148;28;11607;-74
2020/12/27 14:31:40;;;;;;;;;2.50;1.50;;;;;;;;5062674;28;11541;-73
2020/12/27 14:34:06;;;;;;;;;5.00;1.00;;;;;;;;5062019;28;8840;-74
2020/12/27 14:36:32;;;;;;;;;1.00;1.00;;;;;;;;5061685;28;8862;-73
2020/12/27 14:38:58;;;;;;;;;2.00;2.00;;;;;;;;5062967;28;8832;-75
2020/12/27 14:41:24;;;;;;;;;5.00;2.00;;;;;;;;5060470;28;9598;-69
2020/12/27 14:43:51;;;;;;;;;3.00;1.33;;;;;;;;5062200;28;8859;-69
2020/12/27 14:46:18;;;;;;;;;2.67;2.67;;;;;;;;5061514;28;9540;-70
2020/12/27 14:48:45;;;;;;;;;5.00;2.00;;;;;;;;5063126;28;11473;-71
2020/12/27 14:51:11;;;;;;;;;2.00;2.00;;;;;;;;5059164;28;11487;-71
2020/12/27 14:53:37;;;;;;;;;3.00;2.33;;;;;;;;5059684;28;11503;-70
2020/12/27 14:56:04;;;;;;;;;3.00;3.00;;;;;;;;5062219;28;8872;-71
2020/12/27 14:58:30;;;;;;;;;2.00;2.00;;;;;;;;5058281;28;8855;-69
2020/12/27 15:00:56;;;;;;;;;5.00;2.00;;;;;;;;5054327;28;11495;-70
2020/12/27 15:03:22;;;;;;;;;5.67;2.00;;;;;;;;5058532;28;8836;-70
2020/12/27 15:05:49;;;;;;;;;2.00;2.00;;;;;;;;5056366;28;11473;-70
2020/12/27 15:08:15;;;;;;;;;2.67;2.00;;;;;;;;5058817;28;8820;-70
2020/12/27 15:10:41;;;;;;;;;5.00;3.00;;;;;;;;5058610;28;11481;-72
2020/12/27 15:13:07;;;;;;;;;3.67;3.00;;;;;;;;5061471;28;8859;-71
2020/12/27 15:15:33;;;;;;;;;1.00;1.00;;;;;;;;5061704;28;9548;-72
2020/12/27 15:18:00;;;;;;;;;2.00;1.67;;;;;;;;5060005;28;8869;-71
2020/12/27 15:20:26;;;;;;;;;2.00;2.00;;;;;;;;5062337;28;8824;-72
2020/12/27 15:22:52;;;;;;;;;2.00;2.00;;;;;;;;5059201;28;11613;-72
2020/12/27 15:25:18;;;;;;;;;6.00;4.33;;;;;;;;5055304;28;8901;-71
2020/12/27 15:27:44;;;;;;;;;5.33;3.00;;;;;;;;5062013;28;8816;-71
2020/12/27 15:30:10;;;;;;;;;5.00;5.00;;;;;;;;5060378;28;8841;-72
2020/12/27 15:32:36;;;;;;;;;7.00;5.33;;;;;;;;5061020;28;11541;-72
2020/12/27 15:35:03;;;;;;;;;5.67;4.33;;;;;;;;5061055;28;8844;-72
2020/12/27 15:37:29;;;;;;;;;6.00;6.00;;;;;;;;5059775;28;11607;-73
2020/12/27 15:39:55;;;;;;;;;10.67;10.67;;;;;;;;5062003;28;11456;-73
2020/12/27 15:42:21;;;;;;;;;6.67;6.67;;;;;;;;5059118;28;8866;-72
2020/12/27 15:44:47;;;;;;;;;12.67;10.00;;;;;;;;5062193;28;8820;-74
2020/12/27 15:47:13;;;;;;;;;10.00;10.00;;;;;;;;5059241;28;9691;-73
2020/12/27 15:49:39;;;;;;;;;7.00;6.67;;;;;;;;5061362;28;8854;-73
2020/12/27 15:52:06;;;;;;;;;6.33;6.33;;;;;;;;5057193;28;8843;-72
2020/12/27 15:54:32;;;;;;;;;15.33;11.00;;;;;;;;5054598;28;8858;-72
2020/12/27 15:56:58;;;;;;;;;9.67;9.67;;;;;;;;5053772;28;9097;-72
2020/12/27 15:59:24;;;;;;;;;11.67;10.00;;;;;;;;5053742;28;8866;-74
2020/12/27 16:01:50;;;;;;;;;11.00;10.00;;;;;;;;5054450;28;8860;-72
2020/12/27 16:04:16;;;;;;;;;12.33;10.00;;;;;;;;5053986;28;8865;-72
2020/12/27 16:06:42;;;;;;;;;12.33;12.33;;;;;;;;5055125;28;8853;-73
2020/12/27 16:09:10;;;;;;;;;11.00;9.00;;;;;;;;5056378;28;8869;-71
2020/12/27 16:11:36;;;;;;;;;10.00;7.00;;;;;;;;5056319;28;8834;-72
2020/12/27 16:14:02;;;;;;;;;9.67;9.00;;;;;;;;5060253;28;8851;-70
2020/12/27 16:16:27;;;;;;;;;9.67;9.00;;;;;;;;5059539;28;8858;-70
2020/12/27 16:18:53;;;;;;;;;18.00;12.00;;;;;;;;5061866;28;8853;-68
2020/12/27 16:21:19;;;;;;;;;13.33;10.67;;;;;;;;5058674;28;8857;-69
2020/12/27 16:23:46;;;;;;;;;15.33;12.00;;;;;;;;5061572;28;8832;-71
2020/12/27 16:26:13;;;;;;;;;14.67;14.67;;;;;;;;5056036;28;8816;-72
2020/12/27 16:28:39;;;;;;;;;13.67;11.33;;;;;;;;5051986;28;8870;-73
2020/12/27 16:31:05;;;;;;;;;13.67;13.33;;;;;;;;5053454;28;8838;-71
2020/12/27 16:33:31;;;;;;;;;13.33;12.67;;;;;;;;5052124;28;8874;-71
2020/12/27 16:35:57;;;;;;;;;19.00;18.33;;;;;;;;5052319;28;8851;-72
2020/12/27 16:38:23;;;;;;;;;22.00;22.00;;;;;;;;5057629;28;8886;-70
2020/12/27 16:40:49;;;;;;;;;16.00;14.00;;;;;;;;5055119;28;8939;-70
2020/12/27 16:43:16;;;;;;;;;14.67;11.00;;;;;;;;5058305;28;8841;-71
2020/12/27 16:45:42;;;;;;;;;13.67;13.33;;;;;;;;5058360;28;8856;-69
2020/12/27 16:48:08;;;;;;;;;13.67;12.33;;;;;;;;5053296;28;9590;-70
2020/12/27 16:50:33;;;;;;;;;15.67;14.33;;;;;;;;5054395;28;8919;-69
2020/12/27 16:53:01;;;;;;;;;15.00;10.67;;;;;;;;5051060;28;8870;-71
2020/12/27 16:55:27;;;;;;;;;18.67;12.33;;;;;;;;5053401;28;9590;-70
2020/12/27 16:57:53;;;;;;;;;14.00;13.00;;;;;;;;5045844;28;8888;-69
2020/12/27 17:00:20;;;;;;;;;11.67;11.33;;;;;;;;5051794;28;8868;-69
2020/12/27 17:02:46;;;;;;;;;14.00;11.00;;;;;;;;5059140;28;8848;-70
2020/12/27 17:05:12;;;;;;;;;19.00;15.00;;;;;;;;5053718;28;9582;-70
2020/12/27 17:07:39;;;;;;;;;17.33;17.33;;;;;;;;5056433;28;8900;-73
2020/12/27 17:10:05;;;;;;;;;19.33;18.00;;;;;;;;5056001;28;8863;-72
2020/12/27 17:12:31;;;;;;;;;32.67;24.00;;;;;;;;5055767;28;8984;-72
2020/12/27 17:14:57;;;;;;;;;23.67;23.33;;;;;;;;5055105;28;8897;-73
2020/12/27 17:17:24;;;;;;;;;24.67;24.33;;;;;;;;5058814;28;8848;-74
2020/12/27 17:19:50;;;;;;;;;23.33;21.33;;;;;;;;5053186;28;8843;-74
2020/12/27 17:22:16;;;;;;;;;31.00;24.00;;;;;;;;5052460;28;8833;-73
2020/12/27 17:24:42;;;;;;;;;35.67;26.67;;;;;;;;5056978;28;8835;-73
2020/12/27 17:27:08;;;;;;;;;28.33;26.00;;;;;;;;5061587;28;8888;-73
2020/12/27 17:29:34;;;;;;;;;24.67;23.67;;;;;;;;5060526;28;9611;-72
2020/12/27 17:32:00;;;;;;;;;23.00;23.00;;;;;;;;5061780;28;8952;-72
2020/12/27 17:34:27;;;;;;;;;27.00;23.33;;;;;;;;5061283;28;8841;-73
2020/12/27 17:36:56;;;;;;;;;29.33;24.00;;;;;;;;5054238;28;8847;-73
2020/12/27 17:39:22;;;;;;;;;29.00;27.00;;;;;;;;5062689;28;8836;-73